Social login voor leden:

1. METAR EBOS

METAR EBOS 100020Z 24010KT 9999 BKN009 16/14 Q1010 TEMPO 4000 -DZRA

2. TAF EBOS

TAF EBOS 100020Z 24010KT 9999 BKN009 16/14 Q1010 TEMPO 4000 -DZRA

3. NOTAMS EBOS

Klik hier voor een overzicht van de notams.

Deze pagina promoten

Noordzee Vliegclub - Nieuwpoortsesteenweg 947 8400 Oostende - Tel 059 30 04 79 - info@nzvc.be - 

 - Copyright 2020